sensor_id;sensor_type;location;lat;lon;timestamp;pressure;altitude;pressure_sealevel;temperature;humidity
4528;BME280;62320;51.520;6.818;2023-11-25T00:01:47;100723.44;;;2.93;100.00
4528;BME280;62320;51.520;6.818;2023-11-25T00:11:49;100697.81;;;2.91;100.00
4528;BME280;62320;51.520;6.818;2023-11-25T00:21:50;100715.63;;;2.88;100.00
4528;BME280;62320;51.520;6.818;2023-11-25T00:31:55;100699.59;;;2.94;100.00
4528;BME280;62320;51.520;6.818;2023-11-25T00:41:56;100709.03;;;2.95;100.00
4528;BME280;62320;51.520;6.818;2023-11-25T00:51:59;100705.34;;;2.86;100.00
4528;BME280;62320;51.520;6.818;2023-11-25T01:02:00;100723.06;;;2.80;100.00
4528;BME280;62320;51.520;6.818;2023-11-25T01:12:02;100726.97;;;2.69;100.00
4528;BME280;62320;51.520;6.818;2023-11-25T01:22:04;100738.72;;;2.64;100.00
4528;BME280;62320;51.520;6.818;2023-11-25T01:32:06;100735.97;;;2.58;100.00
4528;BME280;62320;51.520;6.818;2023-11-25T01:42:07;100739.88;;;2.47;100.00
4528;BME280;62320;51.520;6.818;2023-11-25T01:52:09;100731.34;;;2.47;100.00
4528;BME280;62320;51.520;6.818;2023-11-25T02:02:13;100745.19;;;2.53;100.00
4528;BME280;62320;51.520;6.818;2023-11-25T02:12:16;100748.34;;;2.46;100.00
4528;BME280;62320;51.520;6.818;2023-11-25T02:22:17;100731.97;;;2.40;100.00
4528;BME280;62320;51.520;6.818;2023-11-25T02:32:19;100732.91;;;2.42;100.00
4528;BME280;62320;51.520;6.818;2023-11-25T02:42:20;100749.59;;;2.32;100.00
4528;BME280;62320;51.520;6.818;2023-11-25T02:52:25;100748.78;;;2.33;100.00
4528;BME280;62320;51.520;6.818;2023-11-25T03:02:27;100746.25;;;2.35;100.00
4528;BME280;62320;51.520;6.818;2023-11-25T03:12:30;100743.50;;;2.27;100.00
4528;BME280;62320;51.520;6.818;2023-11-25T03:22:32;100743.22;;;2.20;100.00
4528;BME280;62320;51.520;6.818;2023-11-25T03:32:34;100737.75;;;2.34;100.00
4528;BME280;62320;51.520;6.818;2023-11-25T03:42:36;100741.31;;;2.39;100.00
4528;BME280;62320;51.520;6.818;2023-11-25T03:52:40;100730.31;;;2.40;100.00
4528;BME280;62320;51.520;6.818;2023-11-25T04:02:43;100721.53;;;2.32;100.00
4528;BME280;62320;51.520;6.818;2023-11-25T04:12:46;100717.97;;;2.27;100.00
4528;BME280;62320;51.520;6.818;2023-11-25T04:22:48;100713.38;;;2.44;100.00
4528;BME280;62320;51.520;6.818;2023-11-25T04:32:50;100724.50;;;2.46;100.00
4528;BME280;62320;51.520;6.818;2023-11-25T04:42:52;100727.16;;;2.49;100.00
4528;BME280;62320;51.520;6.818;2023-11-25T04:52:53;100729.88;;;2.53;100.00
4528;BME280;62320;51.520;6.818;2023-11-25T05:02:55;100719.03;;;2.60;100.00
4528;BME280;62320;51.520;6.818;2023-11-25T05:12:57;100717.44;;;2.64;100.00
4528;BME280;62320;51.520;6.818;2023-11-25T05:22:58;100706.06;;;2.81;100.00
4528;BME280;62320;51.520;6.818;2023-11-25T05:33:00;100710.06;;;3.01;100.00
4528;BME280;62320;51.520;6.818;2023-11-25T05:43:02;100712.28;;;3.19;100.00
4528;BME280;62320;51.520;6.818;2023-11-25T05:53:07;100721.09;;;3.30;100.00
4528;BME280;62320;51.520;6.818;2023-11-25T06:03:08;100713.09;;;3.47;100.00
4528;BME280;62320;51.520;6.818;2023-11-25T06:13:10;100723.50;;;3.55;100.00
4528;BME280;62320;51.520;6.818;2023-11-25T06:23:11;100716.88;;;3.61;100.00
4528;BME280;62320;51.520;6.818;2023-11-25T06:33:13;100708.50;;;3.67;100.00
4528;BME280;62320;51.520;6.818;2023-11-25T06:43:15;100700.97;;;3.72;100.00
4528;BME280;62320;51.520;6.818;2023-11-25T06:53:16;100686.44;;;3.71;100.00
4528;BME280;62320;51.520;6.818;2023-11-25T07:03:18;100688.06;;;3.67;100.00
4528;BME280;62320;51.520;6.818;2023-11-25T07:13:20;100694.78;;;3.63;100.00
4528;BME280;62320;51.520;6.818;2023-11-25T07:23:22;100683.53;;;3.57;100.00
4528;BME280;62320;51.520;6.818;2023-11-25T07:33:23;100675.00;;;3.56;100.00
4528;BME280;62320;51.520;6.818;2023-11-25T07:43:25;100673.41;;;3.61;100.00
4528;BME280;62320;51.520;6.818;2023-11-25T07:53:26;100675.31;;;3.69;100.00
4528;BME280;62320;51.520;6.818;2023-11-25T08:03:28;100687.53;;;3.79;100.00
4528;BME280;62320;51.520;6.818;2023-11-25T08:13:29;100677.66;;;3.94;100.00
4528;BME280;62320;51.520;6.818;2023-11-25T08:23:31;100690.72;;;4.04;100.00
4528;BME280;62320;51.520;6.818;2023-11-25T08:33:33;100681.56;;;4.14;100.00
4528;BME280;62320;51.520;6.818;2023-11-25T08:43:38;100697.22;;;4.26;100.00
4528;BME280;62320;51.520;6.818;2023-11-25T08:53:41;100705.13;;;4.35;100.00
4528;BME280;62320;51.520;6.818;2023-11-25T09:03:46;100687.53;;;4.49;100.00
4528;BME280;62320;51.520;6.818;2023-11-25T09:13:47;100672.34;;;4.56;100.00
4528;BME280;62320;51.520;6.818;2023-11-25T09:23:49;100675.94;;;4.64;100.00
4528;BME280;62320;51.520;6.818;2023-11-25T09:33:50;100657.34;;;4.73;100.00
4528;BME280;62320;51.520;6.818;2023-11-25T09:43:52;100649.03;;;4.83;100.00
4528;BME280;62320;51.520;6.818;2023-11-25T09:53:56;100661.97;;;4.89;100.00
4528;BME280;62320;51.520;6.818;2023-11-25T10:03:59;100656.50;;;5.13;100.00
4528;BME280;62320;51.520;6.818;2023-11-25T10:14:08;100645.63;;;5.26;100.00
4528;BME280;62320;51.520;6.818;2023-11-25T10:24:10;100645.03;;;5.39;100.00
4528;BME280;62320;51.520;6.818;2023-11-25T10:34:11;100642.63;;;5.46;100.00
4528;BME280;62320;51.520;6.818;2023-11-25T10:44:14;100635.06;;;5.54;100.00
4528;BME280;62320;51.520;6.818;2023-11-25T10:54:16;100619.94;;;5.67;100.00
4528;BME280;62320;51.520;6.818;2023-11-25T11:04:32;100613.22;;;5.77;100.00
4528;BME280;62320;51.520;6.818;2023-11-25T11:14:37;100624.59;;;5.88;100.00
4528;BME280;62320;51.520;6.818;2023-11-25T11:35:06;100614.50;;;6.00;100.00
4528;BME280;62320;51.520;6.818;2023-11-25T11:45:11;100606.00;;;6.04;100.00
4528;BME280;62320;51.520;6.818;2023-11-25T12:05:46;100601.13;;;6.19;100.00
4528;BME280;62320;51.520;6.818;2023-11-25T12:15:47;100612.34;;;6.26;100.00
4528;BME280;62320;51.520;6.818;2023-11-25T12:25:49;100591.88;;;6.29;100.00
4528;BME280;62320;51.520;6.818;2023-11-25T12:35:50;100601.31;;;6.33;100.00
4528;BME280;62320;51.520;6.818;2023-11-25T12:45:52;100579.09;;;6.36;100.00
4528;BME280;62320;51.520;6.818;2023-11-25T12:55:53;100574.97;;;6.44;100.00
4528;BME280;62320;51.520;6.818;2023-11-25T13:05:59;100562.94;;;6.43;100.00
4528;BME280;62320;51.520;6.818;2023-11-25T13:16:02;100575.75;;;6.40;100.00
4528;BME280;62320;51.520;6.818;2023-11-25T13:26:05;100573.22;;;6.42;100.00
4528;BME280;62320;51.520;6.818;2023-11-25T13:36:09;100574.06;;;6.42;100.00
4528;BME280;62320;51.520;6.818;2023-11-25T13:46:10;100561.31;;;6.50;100.00
4528;BME280;62320;51.520;6.818;2023-11-25T13:56:12;100565.63;;;6.53;100.00
4528;BME280;62320;51.520;6.818;2023-11-25T14:06:13;100562.94;;;6.42;100.00
4528;BME280;62320;51.520;6.818;2023-11-25T14:16:15;100576.59;;;6.38;100.00
4528;BME280;62320;51.520;6.818;2023-11-25T14:26:17;100584.22;;;6.33;100.00
4528;BME280;62320;51.520;6.818;2023-11-25T14:36:18;100597.06;;;6.33;100.00
4528;BME280;62320;51.520;6.818;2023-11-25T14:46:20;100589.41;;;6.38;100.00
4528;BME280;62320;51.520;6.818;2023-11-25T14:56:23;100594.56;;;6.39;100.00
4528;BME280;62320;51.520;6.818;2023-11-25T15:06:24;100597.13;;;6.38;100.00
4528;BME280;62320;51.520;6.818;2023-11-25T15:16:26;100591.13;;;6.37;100.00
4528;BME280;62320;51.520;6.818;2023-11-25T15:26:27;100594.50;;;6.35;100.00
4528;BME280;62320;51.520;6.818;2023-11-25T15:36:29;100606.44;;;6.31;100.00
4528;BME280;62320;51.520;6.818;2023-11-25T15:46:30;100610.72;;;6.31;100.00
4528;BME280;62320;51.520;6.818;2023-11-25T15:56:32;100616.69;;;6.30;100.00
4528;BME280;62320;51.520;6.818;2023-11-25T16:06:33;100627.75;;;6.26;100.00
4528;BME280;62320;51.520;6.818;2023-11-25T16:16:35;100643.97;;;6.23;100.00
4528;BME280;62320;51.520;6.818;2023-11-25T16:26:37;100717.00;;;5.06;100.00
4528;BME280;62320;51.520;6.818;2023-11-25T16:36:40;100708.78;;;4.82;100.00
4528;BME280;62320;51.520;6.818;2023-11-25T16:46:42;100696.59;;;5.11;100.00
4528;BME280;62320;51.520;6.818;2023-11-25T16:56:44;100693.38;;;5.21;100.00
4528;BME280;62320;51.520;6.818;2023-11-25T17:06:46;100721.44;;;5.15;100.00
4528;BME280;62320;51.520;6.818;2023-11-25T17:16:47;100737.69;;;5.15;100.00
4528;BME280;62320;51.520;6.818;2023-11-25T17:26:50;100752.97;;;5.11;100.00
4528;BME280;62320;51.520;6.818;2023-11-25T17:36:55;100760.63;;;5.09;100.00
4528;BME280;62320;51.520;6.818;2023-11-25T17:46:57;100775.09;;;5.07;100.00
4528;BME280;62320;51.520;6.818;2023-11-25T17:56:58;100773.38;;;5.06;100.00
4528;BME280;62320;51.520;6.818;2023-11-25T18:07:02;100797.25;;;5.03;100.00
4528;BME280;62320;51.520;6.818;2023-11-25T18:17:04;100804.88;;;5.02;100.00
4528;BME280;62320;51.520;6.818;2023-11-25T18:27:06;100803.03;;;4.95;100.00
4528;BME280;62320;51.520;6.818;2023-11-25T18:37:07;100815.06;;;4.99;100.00
4528;BME280;62320;51.520;6.818;2023-11-25T18:47:08;100835.47;;;4.96;100.00
4528;BME280;62320;51.520;6.818;2023-11-25T18:57:10;100834.25;;;4.80;100.00
4528;BME280;62320;51.520;6.818;2023-11-25T19:07:12;100851.81;;;4.65;100.00
4528;BME280;62320;51.520;6.818;2023-11-25T19:17:13;100866.84;;;4.52;100.00
4528;BME280;62320;51.520;6.818;2023-11-25T19:27:15;100881.00;;;4.39;100.00
4528;BME280;62320;51.520;6.818;2023-11-25T19:37:16;100892.09;;;4.40;100.00
4528;BME280;62320;51.520;6.818;2023-11-25T19:47:19;100904.22;;;4.45;100.00
4528;BME280;62320;51.520;6.818;2023-11-25T19:57:21;100909.28;;;4.44;100.00
4528;BME280;62320;51.520;6.818;2023-11-25T20:07:22;100916.28;;;4.51;100.00
4528;BME280;62320;51.520;6.818;2023-11-25T20:17:23;100925.38;;;4.40;100.00
4528;BME280;62320;51.520;6.818;2023-11-25T20:27:27;100947.47;;;4.36;100.00
4528;BME280;62320;51.520;6.818;2023-11-25T20:37:28;100959.06;;;4.23;100.00
4528;BME280;62320;51.520;6.818;2023-11-25T20:47:30;100962.09;;;4.10;100.00
4528;BME280;62320;51.520;6.818;2023-11-25T20:57:31;100968.03;;;4.09;100.00
4528;BME280;62320;51.520;6.818;2023-11-25T21:07:33;100971.16;;;3.99;100.00
4528;BME280;62320;51.520;6.818;2023-11-25T21:17:35;100969.03;;;3.86;100.00
4528;BME280;62320;51.520;6.818;2023-11-25T21:27:36;100978.22;;;3.80;100.00
4528;BME280;62320;51.520;6.818;2023-11-25T21:37:38;100981.59;;;3.79;100.00
4528;BME280;62320;51.520;6.818;2023-11-25T21:47:40;100994.75;;;3.91;100.00
4528;BME280;62320;51.520;6.818;2023-11-25T21:57:41;101000.88;;;3.96;100.00
4528;BME280;62320;51.520;6.818;2023-11-25T22:07:43;101006.84;;;3.95;100.00
4528;BME280;62320;51.520;6.818;2023-11-25T22:17:45;101018.78;;;3.96;100.00
4528;BME280;62320;51.520;6.818;2023-11-25T22:27:46;101017.25;;;4.01;100.00
4528;BME280;62320;51.520;6.818;2023-11-25T22:37:48;101026.72;;;4.05;100.00
4528;BME280;62320;51.520;6.818;2023-11-25T22:47:51;101019.66;;;3.96;100.00
4528;BME280;62320;51.520;6.818;2023-11-25T22:57:53;101018.75;;;3.94;100.00
4528;BME280;62320;51.520;6.818;2023-11-25T23:07:55;101031.41;;;3.90;100.00
4528;BME280;62320;51.520;6.818;2023-11-25T23:17:57;101022.97;;;3.94;100.00
4528;BME280;62320;51.520;6.818;2023-11-25T23:28:01;101038.38;;;3.95;100.00
4528;BME280;62320;51.520;6.818;2023-11-25T23:38:03;101044.34;;;3.96;100.00
4528;BME280;62320;51.520;6.818;2023-11-25T23:48:05;101035.91;;;3.98;100.00
4528;BME280;62320;51.520;6.818;2023-11-25T23:58:06;101042.97;;;4.05;100.00
